sensor_id;sensor_type;location;lat;lon;timestamp;temperature;humidity
32139;DHT22;18644;48.700;9.210;2023-03-20T00:01:52;12.60;60.30
32139;DHT22;18644;48.700;9.210;2023-03-20T00:04:19;12.60;60.30
32139;DHT22;18644;48.700;9.210;2023-03-20T00:06:49;12.60;60.30
32139;DHT22;18644;48.700;9.210;2023-03-20T00:09:15;12.60;60.30
32139;DHT22;18644;48.700;9.210;2023-03-20T00:11:46;12.60;60.30
32139;DHT22;18644;48.700;9.210;2023-03-20T00:14:15;12.60;60.40
32139;DHT22;18644;48.700;9.210;2023-03-20T00:16:44;12.60;60.30
32139;DHT22;18644;48.700;9.210;2023-03-20T00:19:15;12.60;60.30
32139;DHT22;18644;48.700;9.210;2023-03-20T00:21:43;12.60;60.30
32139;DHT22;18644;48.700;9.210;2023-03-20T00:24:12;12.60;60.30
32139;DHT22;18644;48.700;9.210;2023-03-20T00:26:40;12.60;60.40
32139;DHT22;18644;48.700;9.210;2023-03-20T00:29:16;12.60;60.40
32139;DHT22;18644;48.700;9.210;2023-03-20T00:31:47;12.60;60.50
32139;DHT22;18644;48.700;9.210;2023-03-20T00:34:15;12.60;60.30
32139;DHT22;18644;48.700;9.210;2023-03-20T00:36:43;12.60;60.20
32139;DHT22;18644;48.700;9.210;2023-03-20T00:39:12;12.50;60.00
32139;DHT22;18644;48.700;9.210;2023-03-20T00:41:42;12.50;59.90
32139;DHT22;18644;48.700;9.210;2023-03-20T00:44:19;12.50;59.90
32139;DHT22;18644;48.700;9.210;2023-03-20T00:46:49;12.50;59.80
32139;DHT22;18644;48.700;9.210;2023-03-20T00:49:18;12.50;59.80
32139;DHT22;18644;48.700;9.210;2023-03-20T00:51:46;12.40;59.80
32139;DHT22;18644;48.700;9.210;2023-03-20T00:54:16;12.40;59.70
32139;DHT22;18644;48.700;9.210;2023-03-20T00:56:45;12.30;59.70
32139;DHT22;18644;48.700;9.210;2023-03-20T00:59:15;12.30;59.60
32139;DHT22;18644;48.700;9.210;2023-03-20T01:01:44;12.30;59.90
32139;DHT22;18644;48.700;9.210;2023-03-20T01:04:13;12.20;59.40
32139;DHT22;18644;48.700;9.210;2023-03-20T01:06:41;12.10;59.50
32139;DHT22;18644;48.700;9.210;2023-03-20T01:09:08;12.10;59.70
32139;DHT22;18644;48.700;9.210;2023-03-20T01:11:37;12.10;59.90
32139;DHT22;18644;48.700;9.210;2023-03-20T01:14:11;12.00;59.90
32139;DHT22;18644;48.700;9.210;2023-03-20T01:16:40;12.00;59.90
32139;DHT22;18644;48.700;9.210;2023-03-20T01:19:09;12.00;60.00
32139;DHT22;18644;48.700;9.210;2023-03-20T01:21:37;12.00;60.10
32139;DHT22;18644;48.700;9.210;2023-03-20T01:24:04;12.00;60.30
32139;DHT22;18644;48.700;9.210;2023-03-20T01:26:34;12.00;60.40
32139;DHT22;18644;48.700;9.210;2023-03-20T01:29:05;11.90;60.60
32139;DHT22;18644;48.700;9.210;2023-03-20T01:31:42;11.90;60.60
32139;DHT22;18644;48.700;9.210;2023-03-20T01:34:09;12.00;60.70
32139;DHT22;18644;48.700;9.210;2023-03-20T01:36:37;12.00;60.80
32139;DHT22;18644;48.700;9.210;2023-03-20T01:39:05;11.90;60.80
32139;DHT22;18644;48.700;9.210;2023-03-20T01:41:32;11.90;60.90
32139;DHT22;18644;48.700;9.210;2023-03-20T01:44:15;12.00;61.10
32139;DHT22;18644;48.700;9.210;2023-03-20T01:46:47;11.90;61.10
32139;DHT22;18644;48.700;9.210;2023-03-20T01:52:38;12.00;61.40
32139;DHT22;18644;48.700;9.210;2023-03-20T01:55:05;12.00;61.00
32139;DHT22;18644;48.700;9.210;2023-03-20T01:57:32;12.00;61.10
32139;DHT22;18644;48.700;9.210;2023-03-20T02:00:04;12.00;61.20
32139;DHT22;18644;48.700;9.210;2023-03-20T02:02:35;12.00;61.30
32139;DHT22;18644;48.700;9.210;2023-03-20T02:05:05;12.00;61.20
32139;DHT22;18644;48.700;9.210;2023-03-20T02:07:34;12.00;61.20
32139;DHT22;18644;48.700;9.210;2023-03-20T02:10:03;12.00;61.40
32139;DHT22;18644;48.700;9.210;2023-03-20T02:12:32;12.00;61.50
32139;DHT22;18644;48.700;9.210;2023-03-20T02:15:02;12.00;60.80
32139;DHT22;18644;48.700;9.210;2023-03-20T02:17:30;12.00;60.90
32139;DHT22;18644;48.700;9.210;2023-03-20T02:20:05;12.00;60.90
32139;DHT22;18644;48.700;9.210;2023-03-20T02:23:09;12.00;60.90
32139;DHT22;18644;48.700;9.210;2023-03-20T02:26:09;12.00;61.00
32139;DHT22;18644;48.700;9.210;2023-03-20T02:32:02;12.10;60.80
32139;DHT22;18644;48.700;9.210;2023-03-20T02:34:58;12.00;60.60
32139;DHT22;18644;48.700;9.210;2023-03-20T02:38:09;12.00;60.70
32139;DHT22;18644;48.700;9.210;2023-03-20T02:40:54;12.00;60.70
32139;DHT22;18644;48.700;9.210;2023-03-20T02:43:33;12.00;60.70
32139;DHT22;18644;48.700;9.210;2023-03-20T02:46:12;12.00;60.70
32139;DHT22;18644;48.700;9.210;2023-03-20T02:48:46;12.00;61.50
32139;DHT22;18644;48.700;9.210;2023-03-20T02:51:23;12.00;60.90
32139;DHT22;18644;48.700;9.210;2023-03-20T02:54:05;12.00;60.90
32139;DHT22;18644;48.700;9.210;2023-03-20T02:56:40;12.00;60.90
32139;DHT22;18644;48.700;9.210;2023-03-20T02:59:20;12.00;60.90
32139;DHT22;18644;48.700;9.210;2023-03-20T03:01:53;12.10;61.00
32139;DHT22;18644;48.700;9.210;2023-03-20T03:04:22;12.10;61.00
32139;DHT22;18644;48.700;9.210;2023-03-20T03:06:52;12.10;61.20
32139;DHT22;18644;48.700;9.210;2023-03-20T03:09:24;12.10;60.60
32139;DHT22;18644;48.700;9.210;2023-03-20T03:11:58;12.10;60.70
32139;DHT22;18644;48.700;9.210;2023-03-20T03:14:36;12.10;60.70
32139;DHT22;18644;48.700;9.210;2023-03-20T03:17:06;12.10;60.70
32139;DHT22;18644;48.700;9.210;2023-03-20T03:19:36;12.10;60.70
32139;DHT22;18644;48.700;9.210;2023-03-20T03:22:04;12.10;60.80
32139;DHT22;18644;48.700;9.210;2023-03-20T03:24:35;12.10;60.80
32139;DHT22;18644;48.700;9.210;2023-03-20T03:27:06;12.10;60.90
32139;DHT22;18644;48.700;9.210;2023-03-20T03:29:39;12.10;60.90
32139;DHT22;18644;48.700;9.210;2023-03-20T03:32:18;12.10;60.90
32139;DHT22;18644;48.700;9.210;2023-03-20T03:34:48;12.10;60.90
32139;DHT22;18644;48.700;9.210;2023-03-20T03:37:20;12.10;60.90
32139;DHT22;18644;48.700;9.210;2023-03-20T03:39:57;12.10;60.90
32139;DHT22;18644;48.700;9.210;2023-03-20T03:42:34;12.10;60.90
32139;DHT22;18644;48.700;9.210;2023-03-20T03:45:05;12.10;60.90
32139;DHT22;18644;48.700;9.210;2023-03-20T03:47:38;12.10;60.90
32139;DHT22;18644;48.700;9.210;2023-03-20T03:50:11;12.10;60.80
32139;DHT22;18644;48.700;9.210;2023-03-20T03:52:42;12.10;60.70
32139;DHT22;18644;48.700;9.210;2023-03-20T03:55:14;12.10;60.70
32139;DHT22;18644;48.700;9.210;2023-03-20T03:57:47;12.10;60.70
32139;DHT22;18644;48.700;9.210;2023-03-20T04:00:17;12.10;60.70
32139;DHT22;18644;48.700;9.210;2023-03-20T04:02:48;12.10;60.80
32139;DHT22;18644;48.700;9.210;2023-03-20T04:05:18;12.10;60.90
32139;DHT22;18644;48.700;9.210;2023-03-20T04:07:47;12.10;61.00
32139;DHT22;18644;48.700;9.210;2023-03-20T04:10:20;12.10;61.00
32139;DHT22;18644;48.700;9.210;2023-03-20T04:12:47;12.10;60.90
32139;DHT22;18644;48.700;9.210;2023-03-20T04:15:15;12.10;60.90
32139;DHT22;18644;48.700;9.210;2023-03-20T04:17:43;12.10;60.90
32139;DHT22;18644;48.700;9.210;2023-03-20T04:20:11;12.10;60.90
32139;DHT22;18644;48.700;9.210;2023-03-20T04:22:38;12.10;60.90
32139;DHT22;18644;48.700;9.210;2023-03-20T04:25:07;12.10;60.90
32139;DHT22;18644;48.700;9.210;2023-03-20T04:27:37;12.10;60.90
32139;DHT22;18644;48.700;9.210;2023-03-20T04:30:05;12.10;60.90
32139;DHT22;18644;48.700;9.210;2023-03-20T04:32:32;12.00;60.80
32139;DHT22;18644;48.700;9.210;2023-03-20T04:34:59;12.00;60.80
32139;DHT22;18644;48.700;9.210;2023-03-20T04:37:26;12.00;60.70
32139;DHT22;18644;48.700;9.210;2023-03-20T04:39:54;12.00;60.80
32139;DHT22;18644;48.700;9.210;2023-03-20T04:42:21;12.00;60.80
32139;DHT22;18644;48.700;9.210;2023-03-20T04:44:49;12.00;60.90
32139;DHT22;18644;48.700;9.210;2023-03-20T04:47:16;12.00;61.00
32139;DHT22;18644;48.700;9.210;2023-03-20T04:49:43;12.00;60.90
32139;DHT22;18644;48.700;9.210;2023-03-20T04:52:10;12.00;60.90
32139;DHT22;18644;48.700;9.210;2023-03-20T04:54:37;12.00;60.80
32139;DHT22;18644;48.700;9.210;2023-03-20T04:57:03;12.00;60.80
32139;DHT22;18644;48.700;9.210;2023-03-20T04:59:30;11.90;60.70
32139;DHT22;18644;48.700;9.210;2023-03-20T05:01:59;12.00;60.70
32139;DHT22;18644;48.700;9.210;2023-03-20T05:04:26;12.00;60.70
32139;DHT22;18644;48.700;9.210;2023-03-20T05:06:53;11.90;60.60
32139;DHT22;18644;48.700;9.210;2023-03-20T05:09:21;11.90;60.60
32139;DHT22;18644;48.700;9.210;2023-03-20T05:11:48;11.90;60.60
32139;DHT22;18644;48.700;9.210;2023-03-20T05:14:15;11.90;60.60
32139;DHT22;18644;48.700;9.210;2023-03-20T05:16:42;11.90;60.70
32139;DHT22;18644;48.700;9.210;2023-03-20T05:19:10;11.90;60.80
32139;DHT22;18644;48.700;9.210;2023-03-20T05:21:37;11.90;60.80
32139;DHT22;18644;48.700;9.210;2023-03-20T05:24:05;11.90;60.90
32139;DHT22;18644;48.700;9.210;2023-03-20T05:26:32;11.90;60.90
32139;DHT22;18644;48.700;9.210;2023-03-20T05:28:59;11.80;60.90
32139;DHT22;18644;48.700;9.210;2023-03-20T05:31:26;11.80;61.00
32139;DHT22;18644;48.700;9.210;2023-03-20T05:33:52;11.90;61.10
32139;DHT22;18644;48.700;9.210;2023-03-20T05:36:21;11.80;61.10
32139;DHT22;18644;48.700;9.210;2023-03-20T05:38:48;11.80;61.20
32139;DHT22;18644;48.700;9.210;2023-03-20T05:41:15;11.80;61.20
32139;DHT22;18644;48.700;9.210;2023-03-20T05:43:42;11.80;61.30
32139;DHT22;18644;48.700;9.210;2023-03-20T05:46:09;11.80;61.30
32139;DHT22;18644;48.700;9.210;2023-03-20T05:48:36;11.80;61.30
32139;DHT22;18644;48.700;9.210;2023-03-20T05:51:03;11.90;61.40
32139;DHT22;18644;48.700;9.210;2023-03-20T05:53:32;11.90;61.30
32139;DHT22;18644;48.700;9.210;2023-03-20T05:55:59;11.90;61.40
32139;DHT22;18644;48.700;9.210;2023-03-20T05:58:26;11.90;61.50
32139;DHT22;18644;48.700;9.210;2023-03-20T06:00:53;11.90;61.60
32139;DHT22;18644;48.700;9.210;2023-03-20T06:03:20;11.90;61.50
32139;DHT22;18644;48.700;9.210;2023-03-20T06:05:47;11.90;61.50
32139;DHT22;18644;48.700;9.210;2023-03-20T06:08:14;12.00;61.60
32139;DHT22;18644;48.700;9.210;2023-03-20T06:10:42;12.00;61.60
32139;DHT22;18644;48.700;9.210;2023-03-20T06:13:12;12.00;61.70
32139;DHT22;18644;48.700;9.210;2023-03-20T06:15:39;12.00;61.70
32139;DHT22;18644;48.700;9.210;2023-03-20T06:18:06;12.00;61.70
32139;DHT22;18644;48.700;9.210;2023-03-20T06:20:33;12.00;61.80
32139;DHT22;18644;48.700;9.210;2023-03-20T06:23:00;12.00;61.80
32139;DHT22;18644;48.700;9.210;2023-03-20T06:25:27;12.10;62.10
32139;DHT22;18644;48.700;9.210;2023-03-20T06:27:55;12.10;62.20
32139;DHT22;18644;48.700;9.210;2023-03-20T06:30:22;12.10;62.30
32139;DHT22;18644;48.700;9.210;2023-03-20T06:32:49;12.10;62.20
32139;DHT22;18644;48.700;9.210;2023-03-20T06:35:16;12.10;61.80
32139;DHT22;18644;48.700;9.210;2023-03-20T06:37:43;12.20;61.80
32139;DHT22;18644;48.700;9.210;2023-03-20T06:40:10;12.20;62.00
32139;DHT22;18644;48.700;9.210;2023-03-20T06:42:37;12.30;62.40
32139;DHT22;18644;48.700;9.210;2023-03-20T06:45:06;12.30;62.40
32139;DHT22;18644;48.700;9.210;2023-03-20T06:47:34;12.30;62.50
32139;DHT22;18644;48.700;9.210;2023-03-20T06:50:02;12.40;62.50
32139;DHT22;18644;48.700;9.210;2023-03-20T06:52:29;12.50;62.50
32139;DHT22;18644;48.700;9.210;2023-03-20T06:54:56;12.50;62.30
32139;DHT22;18644;48.700;9.210;2023-03-20T06:57:23;12.60;62.20
32139;DHT22;18644;48.700;9.210;2023-03-20T06:59:50;12.60;62.10
32139;DHT22;18644;48.700;9.210;2023-03-20T07:02:19;12.70;62.10
32139;DHT22;18644;48.700;9.210;2023-03-20T07:04:46;12.70;62.00
32139;DHT22;18644;48.700;9.210;2023-03-20T07:07:13;12.80;62.00
32139;DHT22;18644;48.700;9.210;2023-03-20T07:09:40;12.80;62.20
32139;DHT22;18644;48.700;9.210;2023-03-20T07:12:10;12.90;62.30
32139;DHT22;18644;48.700;9.210;2023-03-20T07:14:39;13.00;62.40
32139;DHT22;18644;48.700;9.210;2023-03-20T07:17:07;13.10;62.70
32139;DHT22;18644;48.700;9.210;2023-03-20T07:19:36;13.20;62.70
32139;DHT22;18644;48.700;9.210;2023-03-20T07:22:05;13.30;62.70
32139;DHT22;18644;48.700;9.210;2023-03-20T07:24:33;13.40;62.60
32139;DHT22;18644;48.700;9.210;2023-03-20T07:27:00;13.60;62.40
32139;DHT22;18644;48.700;9.210;2023-03-20T07:29:27;13.70;62.20
32139;DHT22;18644;48.700;9.210;2023-03-20T07:31:54;13.80;61.90
32139;DHT22;18644;48.700;9.210;2023-03-20T07:34:21;13.90;61.60
32139;DHT22;18644;48.700;9.210;2023-03-20T07:36:50;14.00;61.40
32139;DHT22;18644;48.700;9.210;2023-03-20T07:39:17;14.00;60.80
32139;DHT22;18644;48.700;9.210;2023-03-20T07:41:44;14.10;60.30
32139;DHT22;18644;48.700;9.210;2023-03-20T07:44:11;14.10;60.00
32139;DHT22;18644;48.700;9.210;2023-03-20T07:46:39;14.10;59.90
32139;DHT22;18644;48.700;9.210;2023-03-20T07:49:06;14.10;59.90
32139;DHT22;18644;48.700;9.210;2023-03-20T07:51:33;14.10;60.10
32139;DHT22;18644;48.700;9.210;2023-03-20T07:54:01;14.10;60.40
32139;DHT22;18644;48.700;9.210;2023-03-20T07:56:28;14.20;60.50
32139;DHT22;18644;48.700;9.210;2023-03-20T07:58:55;14.30;60.50
32139;DHT22;18644;48.700;9.210;2023-03-20T08:01:22;14.30;60.60
32139;DHT22;18644;48.700;9.210;2023-03-20T08:03:49;14.40;60.50
32139;DHT22;18644;48.700;9.210;2023-03-20T08:06:16;14.50;60.20
32139;DHT22;18644;48.700;9.210;2023-03-20T08:08:43;14.50;60.00
32139;DHT22;18644;48.700;9.210;2023-03-20T08:11:11;14.60;60.20
32139;DHT22;18644;48.700;9.210;2023-03-20T08:13:38;14.70;60.40
32139;DHT22;18644;48.700;9.210;2023-03-20T08:16:06;14.80;60.40
32139;DHT22;18644;48.700;9.210;2023-03-20T08:18:34;14.90;61.10
32139;DHT22;18644;48.700;9.210;2023-03-20T08:21:01;15.00;60.10
32139;DHT22;18644;48.700;9.210;2023-03-20T08:23:27;15.10;59.70
32139;DHT22;18644;48.700;9.210;2023-03-20T08:25:54;15.20;59.60
32139;DHT22;18644;48.700;9.210;2023-03-20T08:28:23;15.30;59.50
32139;DHT22;18644;48.700;9.210;2023-03-20T08:30:50;15.30;59.20
32139;DHT22;18644;48.700;9.210;2023-03-20T08:33:17;15.30;58.70
32139;DHT22;18644;48.700;9.210;2023-03-20T08:35:54;15.30;58.20
32139;DHT22;18644;48.700;9.210;2023-03-20T08:38:21;15.30;57.70
32139;DHT22;18644;48.700;9.210;2023-03-20T08:40:48;15.30;57.50
32139;DHT22;18644;48.700;9.210;2023-03-20T08:43:16;15.20;57.30
32139;DHT22;18644;48.700;9.210;2023-03-20T08:45:44;15.20;57.60
32139;DHT22;18644;48.700;9.210;2023-03-20T08:48:11;15.20;57.80
32139;DHT22;18644;48.700;9.210;2023-03-20T08:50:38;15.20;57.70
32139;DHT22;18644;48.700;9.210;2023-03-20T08:53:06;15.20;57.60
32139;DHT22;18644;48.700;9.210;2023-03-20T08:55:33;15.20;57.60
32139;DHT22;18644;48.700;9.210;2023-03-20T08:58:00;15.20;57.60
32139;DHT22;18644;48.700;9.210;2023-03-20T09:00:27;15.20;57.60
32139;DHT22;18644;48.700;9.210;2023-03-20T09:02:55;15.30;57.70
32139;DHT22;18644;48.700;9.210;2023-03-20T09:05:22;15.30;57.40
32139;DHT22;18644;48.700;9.210;2023-03-20T09:07:49;15.30;57.30
32139;DHT22;18644;48.700;9.210;2023-03-20T09:10:17;15.40;57.70
32139;DHT22;18644;48.700;9.210;2023-03-20T09:12:44;15.40;57.80
32139;DHT22;18644;48.700;9.210;2023-03-20T09:15:11;15.50;58.00
32139;DHT22;18644;48.700;9.210;2023-03-20T09:17:38;15.60;58.10
32139;DHT22;18644;48.700;9.210;2023-03-20T09:20:07;15.70;58.10
32139;DHT22;18644;48.700;9.210;2023-03-20T09:22:35;15.90;58.00
32139;DHT22;18644;48.700;9.210;2023-03-20T09:25:06;16.00;57.80
32139;DHT22;18644;48.700;9.210;2023-03-20T09:27:34;16.10;57.70
32139;DHT22;18644;48.700;9.210;2023-03-20T09:30:01;16.20;57.50
32139;DHT22;18644;48.700;9.210;2023-03-20T09:32:28;16.30;57.20
32139;DHT22;18644;48.700;9.210;2023-03-20T09:34:55;16.40;56.90
32139;DHT22;18644;48.700;9.210;2023-03-20T09:37:23;16.50;56.60
32139;DHT22;18644;48.700;9.210;2023-03-20T09:39:50;16.60;56.20
32139;DHT22;18644;48.700;9.210;2023-03-20T09:42:27;16.60;55.90
32139;DHT22;18644;48.700;9.210;2023-03-20T09:45:05;16.70;55.90
32139;DHT22;18644;48.700;9.210;2023-03-20T09:47:44;16.70;55.70
32139;DHT22;18644;48.700;9.210;2023-03-20T09:50:25;16.80;55.60
32139;DHT22;18644;48.700;9.210;2023-03-20T09:53:02;16.90;55.40
32139;DHT22;18644;48.700;9.210;2023-03-20T09:55:34;16.90;55.10
32139;DHT22;18644;48.700;9.210;2023-03-20T09:58:08;17.00;55.10
32139;DHT22;18644;48.700;9.210;2023-03-20T10:00:39;17.00;55.10
32139;DHT22;18644;48.700;9.210;2023-03-20T10:03:18;17.10;55.10
32139;DHT22;18644;48.700;9.210;2023-03-20T10:05:50;17.10;54.80
32139;DHT22;18644;48.700;9.210;2023-03-20T10:08:26;17.20;54.60
32139;DHT22;18644;48.700;9.210;2023-03-20T10:11:10;17.20;54.20
32139;DHT22;18644;48.700;9.210;2023-03-20T10:13:50;17.20;53.80
32139;DHT22;18644;48.700;9.210;2023-03-20T10:16:34;17.20;53.90
32139;DHT22;18644;48.700;9.210;2023-03-20T10:19:15;17.10;53.80
32139;DHT22;18644;48.700;9.210;2023-03-20T10:21:48;17.10;53.80
32139;DHT22;18644;48.700;9.210;2023-03-20T10:24:23;17.10;53.80
32139;DHT22;18644;48.700;9.210;2023-03-20T10:26:53;17.00;53.50
32139;DHT22;18644;48.700;9.210;2023-03-20T10:29:29;17.00;53.30
32139;DHT22;18644;48.700;9.210;2023-03-20T10:32:05;17.00;52.90
32139;DHT22;18644;48.700;9.210;2023-03-20T10:34:47;16.90;52.90
32139;DHT22;18644;48.700;9.210;2023-03-20T10:37:30;16.80;53.20
32139;DHT22;18644;48.700;9.210;2023-03-20T10:40:23;16.80;53.40
32139;DHT22;18644;48.700;9.210;2023-03-20T10:42:55;16.80;53.60
32139;DHT22;18644;48.700;9.210;2023-03-20T10:45:38;16.80;53.70
32139;DHT22;18644;48.700;9.210;2023-03-20T10:48:14;16.80;53.50
32139;DHT22;18644;48.700;9.210;2023-03-20T10:50:45;16.90;53.40
32139;DHT22;18644;48.700;9.210;2023-03-20T10:53:23;16.90;53.40
32139;DHT22;18644;48.700;9.210;2023-03-20T10:56:02;17.00;53.30
32139;DHT22;18644;48.700;9.210;2023-03-20T10:58:36;16.90;53.00
32139;DHT22;18644;48.700;9.210;2023-03-20T11:01:05;16.90;53.10
32139;DHT22;18644;48.700;9.210;2023-03-20T11:03:33;16.90;52.30
32139;DHT22;18644;48.700;9.210;2023-03-20T11:06:08;16.90;52.00
32139;DHT22;18644;48.700;9.210;2023-03-20T11:08:42;16.90;52.20
32139;DHT22;18644;48.700;9.210;2023-03-20T11:11:21;16.80;52.20
32139;DHT22;18644;48.700;9.210;2023-03-20T11:13:49;16.80;52.20
32139;DHT22;18644;48.700;9.210;2023-03-20T11:16:20;16.80;52.40
32139;DHT22;18644;48.700;9.210;2023-03-20T11:18:49;16.80;52.40
32139;DHT22;18644;48.700;9.210;2023-03-20T11:21:20;16.80;52.50
32139;DHT22;18644;48.700;9.210;2023-03-20T11:23:49;16.90;53.10
32139;DHT22;18644;48.700;9.210;2023-03-20T11:26:29;16.90;52.10
32139;DHT22;18644;48.700;9.210;2023-03-20T11:29:00;16.90;51.50
32139;DHT22;18644;48.700;9.210;2023-03-20T11:31:30;16.90;51.60
32139;DHT22;18644;48.700;9.210;2023-03-20T11:34:09;16.90;51.60
32139;DHT22;18644;48.700;9.210;2023-03-20T11:36:38;16.90;51.60
32139;DHT22;18644;48.700;9.210;2023-03-20T11:39:09;16.90;51.60
32139;DHT22;18644;48.700;9.210;2023-03-20T11:41:46;17.00;51.70
32139;DHT22;18644;48.700;9.210;2023-03-20T11:44:21;17.00;51.70
32139;DHT22;18644;48.700;9.210;2023-03-20T11:46:54;17.00;51.80
32139;DHT22;18644;48.700;9.210;2023-03-20T11:49:24;17.10;51.90
32139;DHT22;18644;48.700;9.210;2023-03-20T11:51:53;17.10;52.00
32139;DHT22;18644;48.700;9.210;2023-03-20T11:54:23;17.10;52.00
32139;DHT22;18644;48.700;9.210;2023-03-20T11:56:54;17.20;52.00
32139;DHT22;18644;48.700;9.210;2023-03-20T11:59:25;17.30;52.10
32139;DHT22;18644;48.700;9.210;2023-03-20T12:01:55;17.30;52.30
32139;DHT22;18644;48.700;9.210;2023-03-20T12:04:26;17.40;52.00
32139;DHT22;18644;48.700;9.210;2023-03-20T12:06:57;17.50;51.70
32139;DHT22;18644;48.700;9.210;2023-03-20T12:09:34;17.60;51.80
32139;DHT22;18644;48.700;9.210;2023-03-20T12:12:10;17.70;52.10
32139;DHT22;18644;48.700;9.210;2023-03-20T12:14:44;17.80;52.00
32139;DHT22;18644;48.700;9.210;2023-03-20T12:17:29;17.90;51.10
32139;DHT22;18644;48.700;9.210;2023-03-20T12:20:05;18.00;50.50
32139;DHT22;18644;48.700;9.210;2023-03-20T12:22:46;17.90;50.60
32139;DHT22;18644;48.700;9.210;2023-03-20T12:25:21;17.90;50.80
32139;DHT22;18644;48.700;9.210;2023-03-20T12:27:55;17.90;50.90
32139;DHT22;18644;48.700;9.210;2023-03-20T12:30:31;17.90;50.90
32139;DHT22;18644;48.700;9.210;2023-03-20T12:33:06;17.90;50.70
32139;DHT22;18644;48.700;9.210;2023-03-20T12:35:42;17.90;50.60
32139;DHT22;18644;48.700;9.210;2023-03-20T12:38:19;17.90;50.50
32139;DHT22;18644;48.700;9.210;2023-03-20T12:40:54;17.80;50.40
32139;DHT22;18644;48.700;9.210;2023-03-20T12:43:25;17.80;50.40
32139;DHT22;18644;48.700;9.210;2023-03-20T12:46:01;17.70;50.40
32139;DHT22;18644;48.700;9.210;2023-03-20T12:48:40;17.70;50.40
32139;DHT22;18644;48.700;9.210;2023-03-20T12:51:15;17.70;51.00
32139;DHT22;18644;48.700;9.210;2023-03-20T12:53:52;17.60;50.40
32139;DHT22;18644;48.700;9.210;2023-03-20T12:56:33;17.60;50.30
32139;DHT22;18644;48.700;9.210;2023-03-20T12:59:18;17.60;50.50
32139;DHT22;18644;48.700;9.210;2023-03-20T13:01:51;17.60;50.90
32139;DHT22;18644;48.700;9.210;2023-03-20T13:04:45;17.60;51.00
32139;DHT22;18644;48.700;9.210;2023-03-20T13:07:18;17.60;50.90
32139;DHT22;18644;48.700;9.210;2023-03-20T13:09:55;17.60;51.20
32139;DHT22;18644;48.700;9.210;2023-03-20T13:12:34;17.60;51.30
32139;DHT22;18644;48.700;9.210;2023-03-20T13:15:28;17.70;51.50
32139;DHT22;18644;48.700;9.210;2023-03-20T13:18:04;17.70;51.30
32139;DHT22;18644;48.700;9.210;2023-03-20T13:20:40;17.70;51.20
32139;DHT22;18644;48.700;9.210;2023-03-20T13:23:19;17.80;50.90
32139;DHT22;18644;48.700;9.210;2023-03-20T13:26:12;17.80;50.50
32139;DHT22;18644;48.700;9.210;2023-03-20T13:28:50;17.90;50.50
32139;DHT22;18644;48.700;9.210;2023-03-20T13:31:33;17.90;50.70
32139;DHT22;18644;48.700;9.210;2023-03-20T13:34:11;17.90;50.10
32139;DHT22;18644;48.700;9.210;2023-03-20T13:36:54;17.90;49.70
32139;DHT22;18644;48.700;9.210;2023-03-20T13:39:30;17.90;49.60
32139;DHT22;18644;48.700;9.210;2023-03-20T13:41:59;17.80;49.40
32139;DHT22;18644;48.700;9.210;2023-03-20T13:44:29;17.80;49.40
32139;DHT22;18644;48.700;9.210;2023-03-20T13:47:02;17.70;49.60
32139;DHT22;18644;48.700;9.210;2023-03-20T13:49:34;17.70;49.60
32139;DHT22;18644;48.700;9.210;2023-03-20T13:52:08;17.70;49.60
32139;DHT22;18644;48.700;9.210;2023-03-20T13:54:50;17.70;49.60
32139;DHT22;18644;48.700;9.210;2023-03-20T13:57:35;17.80;49.70
32139;DHT22;18644;48.700;9.210;2023-03-20T14:00:18;17.80;49.70
32139;DHT22;18644;48.700;9.210;2023-03-20T14:03:14;17.80;49.60
32139;DHT22;18644;48.700;9.210;2023-03-20T14:05:44;17.80;49.30
32139;DHT22;18644;48.700;9.210;2023-03-20T14:08:32;17.80;49.80
32139;DHT22;18644;48.700;9.210;2023-03-20T14:11:13;17.80;49.60
32139;DHT22;18644;48.700;9.210;2023-03-20T14:13:44;17.80;49.90
32139;DHT22;18644;48.700;9.210;2023-03-20T14:16:14;17.90;49.80
32139;DHT22;18644;48.700;9.210;2023-03-20T14:18:47;17.90;49.60
32139;DHT22;18644;48.700;9.210;2023-03-20T14:21:18;17.90;49.50
32139;DHT22;18644;48.700;9.210;2023-03-20T14:23:48;18.00;49.60
32139;DHT22;18644;48.700;9.210;2023-03-20T14:26:21;18.00;49.50
32139;DHT22;18644;48.700;9.210;2023-03-20T14:28:54;18.00;48.90
32139;DHT22;18644;48.700;9.210;2023-03-20T14:31:30;18.00;48.80
32139;DHT22;18644;48.700;9.210;2023-03-20T14:34:07;18.00;48.60
32139;DHT22;18644;48.700;9.210;2023-03-20T14:36:45;17.90;48.80
32139;DHT22;18644;48.700;9.210;2023-03-20T14:39:27;17.90;49.00
32139;DHT22;18644;48.700;9.210;2023-03-20T14:42:14;17.90;49.40
32139;DHT22;18644;48.700;9.210;2023-03-20T14:44:57;17.90;48.80
32139;DHT22;18644;48.700;9.210;2023-03-20T14:47:37;17.90;48.70
32139;DHT22;18644;48.700;9.210;2023-03-20T14:50:16;17.90;48.70
32139;DHT22;18644;48.700;9.210;2023-03-20T14:52:53;17.90;48.90
32139;DHT22;18644;48.700;9.210;2023-03-20T14:55:48;18.00;49.10
32139;DHT22;18644;48.700;9.210;2023-03-20T14:58:39;18.00;48.60
32139;DHT22;18644;48.700;9.210;2023-03-20T15:04:19;18.00;49.00
32139;DHT22;18644;48.700;9.210;2023-03-20T15:06:55;18.00;49.00
32139;DHT22;18644;48.700;9.210;2023-03-20T15:09:26;18.00;48.80
32139;DHT22;18644;48.700;9.210;2023-03-20T15:11:56;18.00;48.60
32139;DHT22;18644;48.700;9.210;2023-03-20T15:14:32;18.00;48.40
32139;DHT22;18644;48.700;9.210;2023-03-20T15:17:03;18.00;48.10
32139;DHT22;18644;48.700;9.210;2023-03-20T15:19:31;17.90;48.00
32139;DHT22;18644;48.700;9.210;2023-03-20T15:22:13;18.00;48.10
32139;DHT22;18644;48.700;9.210;2023-03-20T15:24:42;17.90;48.10
32139;DHT22;18644;48.700;9.210;2023-03-20T15:27:17;17.90;48.20
32139;DHT22;18644;48.700;9.210;2023-03-20T15:29:48;17.90;48.20
32139;DHT22;18644;48.700;9.210;2023-03-20T15:32:17;17.90;48.30
32139;DHT22;18644;48.700;9.210;2023-03-20T15:34:45;17.90;48.40
32139;DHT22;18644;48.700;9.210;2023-03-20T15:37:16;17.80;48.60
32139;DHT22;18644;48.700;9.210;2023-03-20T15:39:46;17.80;48.70
32139;DHT22;18644;48.700;9.210;2023-03-20T15:42:15;17.80;48.90
32139;DHT22;18644;48.700;9.210;2023-03-20T15:44:45;17.80;49.10
32139;DHT22;18644;48.700;9.210;2023-03-20T15:47:15;17.80;49.30
32139;DHT22;18644;48.700;9.210;2023-03-20T15:49:49;17.80;49.40
32139;DHT22;18644;48.700;9.210;2023-03-20T15:52:26;17.80;49.30
32139;DHT22;18644;48.700;9.210;2023-03-20T15:54:56;17.80;48.60
32139;DHT22;18644;48.700;9.210;2023-03-20T15:57:29;17.80;48.00
32139;DHT22;18644;48.700;9.210;2023-03-20T15:59:57;17.70;47.80
32139;DHT22;18644;48.700;9.210;2023-03-20T16:02:25;17.70;47.80
32139;DHT22;18644;48.700;9.210;2023-03-20T16:04:54;17.70;47.60
32139;DHT22;18644;48.700;9.210;2023-03-20T16:07:27;17.50;47.30
32139;DHT22;18644;48.700;9.210;2023-03-20T16:09:56;17.50;47.10